sensor_id;sensor_type;location;lat;lon;timestamp;P1;durP1;ratioP1;P2;durP2;ratioP2
28836;SDS011;50669;50.982;11.022;2023-03-03T00:00:42;6.30;;;4.57;;
28836;SDS011;50669;50.982;11.022;2023-03-03T00:03:09;7.63;;;4.45;;
28836;SDS011;50669;50.982;11.022;2023-03-03T00:05:41;5.93;;;4.35;;
28836;SDS011;50669;50.982;11.022;2023-03-03T00:08:07;6.38;;;4.20;;
28836;SDS011;50669;50.982;11.022;2023-03-03T00:10:39;6.63;;;4.80;;
28836;SDS011;50669;50.982;11.022;2023-03-03T00:13:17;6.63;;;4.95;;
28836;SDS011;50669;50.982;11.022;2023-03-03T00:15:48;5.65;;;4.35;;
28836;SDS011;50669;50.982;11.022;2023-03-03T00:18:16;6.07;;;4.72;;
28836;SDS011;50669;50.982;11.022;2023-03-03T00:21:00;5.53;;;3.53;;
28836;SDS011;50669;50.982;11.022;2023-03-03T00:26:17;4.95;;;3.70;;
28836;SDS011;50669;50.982;11.022;2023-03-03T00:28:53;6.70;;;4.20;;
28836;SDS011;50669;50.982;11.022;2023-03-03T00:31:27;8.88;;;4.50;;
28836;SDS011;50669;50.982;11.022;2023-03-03T00:34:03;6.35;;;4.13;;
28836;SDS011;50669;50.982;11.022;2023-03-03T00:36:42;7.35;;;4.30;;
28836;SDS011;50669;50.982;11.022;2023-03-03T00:41:53;5.50;;;4.13;;
28836;SDS011;50669;50.982;11.022;2023-03-03T00:44:38;8.25;;;4.05;;
28836;SDS011;50669;50.982;11.022;2023-03-03T00:52:29;4.80;;;3.85;;
28836;SDS011;50669;50.982;11.022;2023-03-03T00:55:04;7.55;;;5.00;;
28836;SDS011;50669;50.982;11.022;2023-03-03T00:57:35;5.57;;;4.07;;
28836;SDS011;50669;50.982;11.022;2023-03-03T01:00:03;5.45;;;3.80;;
28836;SDS011;50669;50.982;11.022;2023-03-03T01:02:29;5.05;;;3.72;;
28836;SDS011;50669;50.982;11.022;2023-03-03T01:04:55;5.82;;;4.50;;
28836;SDS011;50669;50.982;11.022;2023-03-03T01:07:21;5.32;;;4.10;;
28836;SDS011;50669;50.982;11.022;2023-03-03T01:09:49;4.95;;;3.90;;
28836;SDS011;50669;50.982;11.022;2023-03-03T01:12:15;5.70;;;4.05;;
28836;SDS011;50669;50.982;11.022;2023-03-03T01:14:43;7.07;;;4.43;;
28836;SDS011;50669;50.982;11.022;2023-03-03T01:17:11;5.72;;;4.43;;
28836;SDS011;50669;50.982;11.022;2023-03-03T01:19:37;4.72;;;3.70;;
28836;SDS011;50669;50.982;11.022;2023-03-03T01:22:03;5.55;;;3.58;;
28836;SDS011;50669;50.982;11.022;2023-03-03T01:24:28;5.05;;;3.97;;
28836;SDS011;50669;50.982;11.022;2023-03-03T01:26:54;5.40;;;4.38;;
28836;SDS011;50669;50.982;11.022;2023-03-03T01:29:19;6.65;;;3.95;;
28836;SDS011;50669;50.982;11.022;2023-03-03T01:31:45;5.35;;;4.00;;
28836;SDS011;50669;50.982;11.022;2023-03-03T01:34:13;6.55;;;3.92;;
28836;SDS011;50669;50.982;11.022;2023-03-03T01:36:38;5.10;;;3.90;;
28836;SDS011;50669;50.982;11.022;2023-03-03T01:39:09;5.15;;;4.18;;
28836;SDS011;50669;50.982;11.022;2023-03-03T01:41:36;6.85;;;4.25;;
28836;SDS011;50669;50.982;11.022;2023-03-03T01:44:05;5.53;;;3.85;;
28836;SDS011;50669;50.982;11.022;2023-03-03T01:46:40;5.15;;;3.75;;
28836;SDS011;50669;50.982;11.022;2023-03-03T01:49:21;7.38;;;4.20;;
28836;SDS011;50669;50.982;11.022;2023-03-03T01:52:00;5.47;;;3.97;;
28836;SDS011;50669;50.982;11.022;2023-03-03T01:54:35;6.43;;;4.30;;
28836;SDS011;50669;50.982;11.022;2023-03-03T01:57:15;5.70;;;3.85;;
28836;SDS011;50669;50.982;11.022;2023-03-03T01:59:47;6.38;;;4.45;;
28836;SDS011;50669;50.982;11.022;2023-03-03T02:02:19;6.10;;;3.90;;
28836;SDS011;50669;50.982;11.022;2023-03-03T02:04:45;5.63;;;3.67;;
28836;SDS011;50669;50.982;11.022;2023-03-03T02:07:13;7.22;;;3.42;;
28836;SDS011;50669;50.982;11.022;2023-03-03T02:09:51;7.22;;;4.25;;
28836;SDS011;50669;50.982;11.022;2023-03-03T02:12:19;6.18;;;3.65;;
28836;SDS011;50669;50.982;11.022;2023-03-03T02:14:47;7.13;;;4.07;;
28836;SDS011;50669;50.982;11.022;2023-03-03T02:17:13;4.93;;;3.55;;
28836;SDS011;50669;50.982;11.022;2023-03-03T02:22:26;5.30;;;3.83;;
28836;SDS011;50669;50.982;11.022;2023-03-03T02:25:02;5.22;;;3.85;;
28836;SDS011;50669;50.982;11.022;2023-03-03T02:27:32;6.18;;;3.75;;
28836;SDS011;50669;50.982;11.022;2023-03-03T02:30:07;6.40;;;3.70;;
28836;SDS011;50669;50.982;11.022;2023-03-03T02:32:41;6.20;;;3.85;;
28836;SDS011;50669;50.982;11.022;2023-03-03T02:37:51;4.60;;;3.58;;
28836;SDS011;50669;50.982;11.022;2023-03-03T02:40:19;7.32;;;3.78;;
28836;SDS011;50669;50.982;11.022;2023-03-03T02:42:48;5.53;;;3.67;;
28836;SDS011;50669;50.982;11.022;2023-03-03T02:45:16;5.43;;;3.50;;
28836;SDS011;50669;50.982;11.022;2023-03-03T02:47:47;4.50;;;3.30;;
28836;SDS011;50669;50.982;11.022;2023-03-03T02:50:15;6.50;;;3.55;;
28836;SDS011;50669;50.982;11.022;2023-03-03T02:52:41;5.65;;;3.60;;
28836;SDS011;50669;50.982;11.022;2023-03-03T02:55:08;6.60;;;3.17;;
28836;SDS011;50669;50.982;11.022;2023-03-03T02:57:34;5.47;;;3.65;;
28836;SDS011;50669;50.982;11.022;2023-03-03T03:00:00;5.22;;;3.50;;
28836;SDS011;50669;50.982;11.022;2023-03-03T03:02:28;6.43;;;3.75;;
28836;SDS011;50669;50.982;11.022;2023-03-03T03:04:53;7.38;;;3.88;;
28836;SDS011;50669;50.982;11.022;2023-03-03T03:07:21;5.70;;;3.92;;
28836;SDS011;50669;50.982;11.022;2023-03-03T03:09:47;4.40;;;3.20;;
28836;SDS011;50669;50.982;11.022;2023-03-03T03:12:13;6.55;;;3.90;;
28836;SDS011;50669;50.982;11.022;2023-03-03T03:14:40;5.65;;;3.30;;
28836;SDS011;50669;50.982;11.022;2023-03-03T03:17:05;6.57;;;3.97;;
28836;SDS011;50669;50.982;11.022;2023-03-03T03:19:31;6.18;;;3.80;;
28836;SDS011;50669;50.982;11.022;2023-03-03T03:22:01;5.43;;;3.38;;
28836;SDS011;50669;50.982;11.022;2023-03-03T03:24:27;5.57;;;3.53;;
28836;SDS011;50669;50.982;11.022;2023-03-03T03:26:53;5.88;;;3.50;;
28836;SDS011;50669;50.982;11.022;2023-03-03T03:29:18;4.70;;;3.85;;
28836;SDS011;50669;50.982;11.022;2023-03-03T03:31:46;5.00;;;3.60;;
28836;SDS011;50669;50.982;11.022;2023-03-03T03:34:14;6.45;;;3.75;;
28836;SDS011;50669;50.982;11.022;2023-03-03T03:36:40;5.95;;;3.25;;
28836;SDS011;50669;50.982;11.022;2023-03-03T03:39:07;6.22;;;3.92;;
28836;SDS011;50669;50.982;11.022;2023-03-03T03:41:35;5.03;;;3.47;;
28836;SDS011;50669;50.982;11.022;2023-03-03T03:44:00;4.97;;;3.33;;
28836;SDS011;50669;50.982;11.022;2023-03-03T03:46:26;5.85;;;3.53;;
28836;SDS011;50669;50.982;11.022;2023-03-03T03:48:52;6.63;;;3.55;;
28836;SDS011;50669;50.982;11.022;2023-03-03T03:51:17;4.85;;;3.40;;
28836;SDS011;50669;50.982;11.022;2023-03-03T03:53:45;7.47;;;3.15;;
28836;SDS011;50669;50.982;11.022;2023-03-03T03:56:11;7.45;;;3.40;;
28836;SDS011;50669;50.982;11.022;2023-03-03T03:58:39;4.55;;;3.53;;
28836;SDS011;50669;50.982;11.022;2023-03-03T04:01:06;6.20;;;3.75;;
28836;SDS011;50669;50.982;11.022;2023-03-03T04:03:35;4.65;;;3.35;;
28836;SDS011;50669;50.982;11.022;2023-03-03T04:06:00;5.40;;;3.55;;
28836;SDS011;50669;50.982;11.022;2023-03-03T04:08:26;5.85;;;3.45;;
28836;SDS011;50669;50.982;11.022;2023-03-03T04:10:52;5.18;;;3.53;;
28836;SDS011;50669;50.982;11.022;2023-03-03T04:13:17;4.10;;;3.10;;
28836;SDS011;50669;50.982;11.022;2023-03-03T04:15:43;4.28;;;3.10;;
28836;SDS011;50669;50.982;11.022;2023-03-03T04:18:13;5.35;;;3.28;;
28836;SDS011;50669;50.982;11.022;2023-03-03T04:20:41;7.63;;;3.10;;
28836;SDS011;50669;50.982;11.022;2023-03-03T04:23:07;7.22;;;3.50;;
28836;SDS011;50669;50.982;11.022;2023-03-03T04:25:33;4.72;;;3.10;;
28836;SDS011;50669;50.982;11.022;2023-03-03T04:27:58;6.60;;;3.35;;
28836;SDS011;50669;50.982;11.022;2023-03-03T04:30:26;6.30;;;3.47;;
28836;SDS011;50669;50.982;11.022;2023-03-03T04:32:52;5.75;;;3.35;;
28836;SDS011;50669;50.982;11.022;2023-03-03T04:35:19;5.03;;;2.97;;
28836;SDS011;50669;50.982;11.022;2023-03-03T04:37:47;7.47;;;3.13;;
28836;SDS011;50669;50.982;11.022;2023-03-03T04:40:13;4.65;;;3.35;;
28836;SDS011;50669;50.982;11.022;2023-03-03T04:42:40;4.15;;;3.13;;
28836;SDS011;50669;50.982;11.022;2023-03-03T04:45:06;5.60;;;3.22;;
28836;SDS011;50669;50.982;11.022;2023-03-03T04:47:36;4.35;;;3.10;;
28836;SDS011;50669;50.982;11.022;2023-03-03T04:50:03;5.45;;;3.53;;
28836;SDS011;50669;50.982;11.022;2023-03-03T04:52:29;5.35;;;3.53;;
28836;SDS011;50669;50.982;11.022;2023-03-03T04:54:54;6.88;;;3.95;;
28836;SDS011;50669;50.982;11.022;2023-03-03T04:57:22;6.97;;;3.10;;
28836;SDS011;50669;50.982;11.022;2023-03-03T04:59:48;4.90;;;3.40;;
28836;SDS011;50669;50.982;11.022;2023-03-03T05:02:16;4.07;;;2.85;;
28836;SDS011;50669;50.982;11.022;2023-03-03T05:04:42;4.85;;;3.40;;
28836;SDS011;50669;50.982;11.022;2023-03-03T05:07:08;3.88;;;2.75;;
28836;SDS011;50669;50.982;11.022;2023-03-03T05:09:34;8.13;;;3.10;;
28836;SDS011;50669;50.982;11.022;2023-03-03T05:12:00;4.90;;;3.30;;
28836;SDS011;50669;50.982;11.022;2023-03-03T05:14:25;4.85;;;3.67;;
28836;SDS011;50669;50.982;11.022;2023-03-03T05:16:55;4.57;;;3.13;;
28836;SDS011;50669;50.982;11.022;2023-03-03T05:19:21;4.78;;;2.90;;
28836;SDS011;50669;50.982;11.022;2023-03-03T05:21:47;4.63;;;3.10;;
28836;SDS011;50669;50.982;11.022;2023-03-03T05:24:13;5.32;;;3.30;;
28836;SDS011;50669;50.982;11.022;2023-03-03T05:26:39;3.97;;;3.17;;
28836;SDS011;50669;50.982;11.022;2023-03-03T05:29:06;8.50;;;3.38;;
28836;SDS011;50669;50.982;11.022;2023-03-03T05:31:32;4.90;;;3.10;;
28836;SDS011;50669;50.982;11.022;2023-03-03T05:33:58;3.72;;;3.17;;
28836;SDS011;50669;50.982;11.022;2023-03-03T05:36:24;4.38;;;2.97;;
28836;SDS011;50669;50.982;11.022;2023-03-03T05:38:50;5.43;;;3.03;;
28836;SDS011;50669;50.982;11.022;2023-03-03T05:41:16;4.93;;;3.10;;
28836;SDS011;50669;50.982;11.022;2023-03-03T05:43:44;5.15;;;3.47;;
28836;SDS011;50669;50.982;11.022;2023-03-03T05:46:10;5.55;;;3.20;;
28836;SDS011;50669;50.982;11.022;2023-03-03T05:48:35;6.35;;;3.08;;
28836;SDS011;50669;50.982;11.022;2023-03-03T05:51:03;3.60;;;2.65;;
28836;SDS011;50669;50.982;11.022;2023-03-03T05:53:31;11.75;;;8.75;;
28836;SDS011;50669;50.982;11.022;2023-03-03T05:55:57;14.38;;;9.52;;
28836;SDS011;50669;50.982;11.022;2023-03-03T05:58:23;15.85;;;10.85;;
28836;SDS011;50669;50.982;11.022;2023-03-03T06:00:51;19.98;;;10.43;;
28836;SDS011;50669;50.982;11.022;2023-03-03T06:03:17;14.13;;;10.02;;
28836;SDS011;50669;50.982;11.022;2023-03-03T06:05:45;17.70;;;11.00;;
28836;SDS011;50669;50.982;11.022;2023-03-03T06:08:13;15.73;;;9.63;;
28836;SDS011;50669;50.982;11.022;2023-03-03T06:10:43;17.90;;;11.00;;
28836;SDS011;50669;50.982;11.022;2023-03-03T06:13:11;16.00;;;9.90;;
28836;SDS011;50669;50.982;11.022;2023-03-03T06:15:37;17.13;;;10.15;;
28836;SDS011;50669;50.982;11.022;2023-03-03T06:18:02;15.98;;;10.50;;
28836;SDS011;50669;50.982;11.022;2023-03-03T06:20:28;18.65;;;9.85;;
28836;SDS011;50669;50.982;11.022;2023-03-03T06:22:54;15.70;;;9.43;;
28836;SDS011;50669;50.982;11.022;2023-03-03T06:25:20;18.40;;;10.00;;
28836;SDS011;50669;50.982;11.022;2023-03-03T06:27:46;26.23;;;12.45;;
28836;SDS011;50669;50.982;11.022;2023-03-03T06:30:14;25.10;;;13.55;;
28836;SDS011;50669;50.982;11.022;2023-03-03T06:32:40;20.92;;;12.35;;
28836;SDS011;50669;50.982;11.022;2023-03-03T06:35:06;29.92;;;14.15;;
28836;SDS011;50669;50.982;11.022;2023-03-03T06:37:32;26.40;;;12.82;;
28836;SDS011;50669;50.982;11.022;2023-03-03T06:39:57;27.77;;;13.07;;
28836;SDS011;50669;50.982;11.022;2023-03-03T06:42:23;26.77;;;12.73;;
28836;SDS011;50669;50.982;11.022;2023-03-03T06:44:51;22.65;;;12.38;;
28836;SDS011;50669;50.982;11.022;2023-03-03T06:47:17;24.05;;;12.93;;
28836;SDS011;50669;50.982;11.022;2023-03-03T06:49:42;24.08;;;12.85;;
28836;SDS011;50669;50.982;11.022;2023-03-03T06:52:12;27.20;;;12.30;;
28836;SDS011;50669;50.982;11.022;2023-03-03T06:54:39;23.42;;;11.90;;
28836;SDS011;50669;50.982;11.022;2023-03-03T06:57:16;23.02;;;12.48;;
28836;SDS011;50669;50.982;11.022;2023-03-03T06:59:46;26.02;;;12.38;;
28836;SDS011;50669;50.982;11.022;2023-03-03T07:02:16;37.13;;;13.13;;
28836;SDS011;50669;50.982;11.022;2023-03-03T07:04:43;49.80;;;12.65;;
28836;SDS011;50669;50.982;11.022;2023-03-03T07:07:18;36.55;;;11.50;;
28836;SDS011;50669;50.982;11.022;2023-03-03T07:09:49;32.97;;;10.55;;
28836;SDS011;50669;50.982;11.022;2023-03-03T07:12:22;29.05;;;10.98;;
28836;SDS011;50669;50.982;11.022;2023-03-03T07:15:12;27.48;;;10.93;;
28836;SDS011;50669;50.982;11.022;2023-03-03T07:17:43;32.35;;;9.95;;
28836;SDS011;50669;50.982;11.022;2023-03-03T07:20:22;24.95;;;10.15;;
28836;SDS011;50669;50.982;11.022;2023-03-03T07:22:54;30.90;;;9.40;;
28836;SDS011;50669;50.982;11.022;2023-03-03T07:27:55;22.17;;;9.00;;
28836;SDS011;50669;50.982;11.022;2023-03-03T07:30:27;22.70;;;9.68;;
28836;SDS011;50669;50.982;11.022;2023-03-03T07:32:54;24.23;;;9.68;;
28836;SDS011;50669;50.982;11.022;2023-03-03T07:37:56;26.20;;;9.57;;
28836;SDS011;50669;50.982;11.022;2023-03-03T07:42:58;22.77;;;8.65;;
28836;SDS011;50669;50.982;11.022;2023-03-03T07:45:30;21.00;;;7.95;;
28836;SDS011;50669;50.982;11.022;2023-03-03T07:48:18;23.70;;;8.32;;
28836;SDS011;50669;50.982;11.022;2023-03-03T07:50:48;16.98;;;7.30;;
28836;SDS011;50669;50.982;11.022;2023-03-03T07:53:19;17.25;;;8.05;;
28836;SDS011;50669;50.982;11.022;2023-03-03T07:55:52;19.95;;;8.43;;
28836;SDS011;50669;50.982;11.022;2023-03-03T07:58:26;19.95;;;8.57;;
28836;SDS011;50669;50.982;11.022;2023-03-03T08:04:23;24.15;;;8.63;;
28836;SDS011;50669;50.982;11.022;2023-03-03T08:06:58;19.23;;;8.30;;
28836;SDS011;50669;50.982;11.022;2023-03-03T08:09:28;20.52;;;7.85;;
28836;SDS011;50669;50.982;11.022;2023-03-03T08:14:34;17.70;;;7.75;;
28836;SDS011;50669;50.982;11.022;2023-03-03T08:17:12;18.63;;;8.05;;
28836;SDS011;50669;50.982;11.022;2023-03-03T08:19:47;20.60;;;7.80;;
28836;SDS011;50669;50.982;11.022;2023-03-03T08:22:18;16.73;;;7.53;;
28836;SDS011;50669;50.982;11.022;2023-03-03T08:24:55;17.98;;;7.30;;
28836;SDS011;50669;50.982;11.022;2023-03-03T08:27:20;19.42;;;7.93;;
28836;SDS011;50669;50.982;11.022;2023-03-03T08:29:46;17.70;;;7.28;;
28836;SDS011;50669;50.982;11.022;2023-03-03T08:32:14;20.52;;;8.10;;
28836;SDS011;50669;50.982;11.022;2023-03-03T08:34:40;18.73;;;7.03;;
28836;SDS011;50669;50.982;11.022;2023-03-03T08:37:08;17.13;;;7.15;;
28836;SDS011;50669;50.982;11.022;2023-03-03T08:39:36;18.52;;;7.70;;
28836;SDS011;50669;50.982;11.022;2023-03-03T08:42:01;15.10;;;6.88;;
28836;SDS011;50669;50.982;11.022;2023-03-03T08:44:29;14.85;;;6.50;;
28836;SDS011;50669;50.982;11.022;2023-03-03T08:46:57;16.27;;;6.50;;
28836;SDS011;50669;50.982;11.022;2023-03-03T08:49:23;19.52;;;7.10;;
28836;SDS011;50669;50.982;11.022;2023-03-03T08:51:51;17.10;;;6.55;;
28836;SDS011;50669;50.982;11.022;2023-03-03T08:54:19;14.48;;;6.72;;
28836;SDS011;50669;50.982;11.022;2023-03-03T08:56:47;16.98;;;7.10;;
28836;SDS011;50669;50.982;11.022;2023-03-03T08:59:14;16.50;;;6.85;;
28836;SDS011;50669;50.982;11.022;2023-03-03T09:01:41;13.10;;;6.60;;
28836;SDS011;50669;50.982;11.022;2023-03-03T09:04:08;14.15;;;7.03;;
28836;SDS011;50669;50.982;11.022;2023-03-03T09:06:36;13.57;;;6.10;;
28836;SDS011;50669;50.982;11.022;2023-03-03T09:09:03;13.23;;;6.35;;
28836;SDS011;50669;50.982;11.022;2023-03-03T09:11:33;14.00;;;6.20;;
28836;SDS011;50669;50.982;11.022;2023-03-03T09:14:12;15.00;;;6.32;;
28836;SDS011;50669;50.982;11.022;2023-03-03T09:16:39;12.63;;;6.78;;
28836;SDS011;50669;50.982;11.022;2023-03-03T09:19:27;16.90;;;5.78;;
28836;SDS011;50669;50.982;11.022;2023-03-03T09:21:55;16.00;;;6.82;;
28836;SDS011;50669;50.982;11.022;2023-03-03T09:24:44;13.90;;;6.40;;
28836;SDS011;50669;50.982;11.022;2023-03-03T09:27:14;13.43;;;7.13;;
28836;SDS011;50669;50.982;11.022;2023-03-03T09:29:47;11.27;;;5.65;;
28836;SDS011;50669;50.982;11.022;2023-03-03T09:34:55;14.00;;;6.75;;
28836;SDS011;50669;50.982;11.022;2023-03-03T09:37:35;13.65;;;6.18;;
28836;SDS011;50669;50.982;11.022;2023-03-03T09:40:12;12.60;;;5.72;;
28836;SDS011;50669;50.982;11.022;2023-03-03T09:45:39;13.88;;;5.80;;
28836;SDS011;50669;50.982;11.022;2023-03-03T09:48:25;11.20;;;5.60;;
28836;SDS011;50669;50.982;11.022;2023-03-03T09:53:56;13.90;;;6.00;;
28836;SDS011;50669;50.982;11.022;2023-03-03T09:56:43;12.13;;;6.03;;
28836;SDS011;50669;50.982;11.022;2023-03-03T10:19:01;10.57;;;5.43;;
28836;SDS011;50669;50.982;11.022;2023-03-03T10:24:57;9.50;;;5.30;;
28836;SDS011;50669;50.982;11.022;2023-03-03T10:30:06;10.55;;;5.47;;
28836;SDS011;50669;50.982;11.022;2023-03-03T10:46:56;9.10;;;5.28;;
28836;SDS011;50669;50.982;11.022;2023-03-03T11:26:59;8.40;;;4.60;;
28836;SDS011;50669;50.982;11.022;2023-03-03T11:32:29;8.77;;;5.18;;
28836;SDS011;50669;50.982;11.022;2023-03-03T11:40:38;9.60;;;4.47;;
28836;SDS011;50669;50.982;11.022;2023-03-03T11:45:51;10.30;;;4.95;;
28836;SDS011;50669;50.982;11.022;2023-03-03T11:48:26;9.38;;;3.97;;
28836;SDS011;50669;50.982;11.022;2023-03-03T11:51:05;7.68;;;4.45;;
28836;SDS011;50669;50.982;11.022;2023-03-03T11:54:02;7.75;;;3.90;;
28836;SDS011;50669;50.982;11.022;2023-03-03T11:56:44;7.53;;;4.20;;
28836;SDS011;50669;50.982;11.022;2023-03-03T12:05:18;8.60;;;4.53;;
28836;SDS011;50669;50.982;11.022;2023-03-03T12:11:02;8.38;;;4.05;;
28836;SDS011;50669;50.982;11.022;2023-03-03T12:18:54;9.77;;;4.45;;
28836;SDS011;50669;50.982;11.022;2023-03-03T12:21:33;8.30;;;3.80;;
28836;SDS011;50669;50.982;11.022;2023-03-03T12:24:31;6.70;;;3.75;;
28836;SDS011;50669;50.982;11.022;2023-03-03T12:35:38;7.57;;;3.80;;
28836;SDS011;50669;50.982;11.022;2023-03-03T12:46:18;5.43;;;3.35;;
28836;SDS011;50669;50.982;11.022;2023-03-03T12:49:24;7.35;;;3.83;;
28836;SDS011;50669;50.982;11.022;2023-03-03T13:01:05;8.48;;;3.55;;
28836;SDS011;50669;50.982;11.022;2023-03-03T13:22:36;7.90;;;3.42;;
28836;SDS011;50669;50.982;11.022;2023-03-03T13:27:55;5.15;;;3.20;;
28836;SDS011;50669;50.982;11.022;2023-03-03T13:30:30;6.20;;;3.15;;
28836;SDS011;50669;50.982;11.022;2023-03-03T13:38:09;6.90;;;3.13;;
28836;SDS011;50669;50.982;11.022;2023-03-03T13:40:44;6.38;;;3.25;;
28836;SDS011;50669;50.982;11.022;2023-03-03T13:43:21;5.80;;;3.25;;
28836;SDS011;50669;50.982;11.022;2023-03-03T14:10:31;5.80;;;3.10;;
28836;SDS011;50669;50.982;11.022;2023-03-03T14:15:37;5.53;;;3.28;;
28836;SDS011;50669;50.982;11.022;2023-03-03T14:18:31;4.78;;;3.30;;
28836;SDS011;50669;50.982;11.022;2023-03-03T14:21:31;5.78;;;2.60;;
28836;SDS011;50669;50.982;11.022;2023-03-03T14:24:18;6.00;;;3.00;;
28836;SDS011;50669;50.982;11.022;2023-03-03T14:26:49;5.45;;;2.83;;
28836;SDS011;50669;50.982;11.022;2023-03-03T14:31:52;4.15;;;2.65;;
28836;SDS011;50669;50.982;11.022;2023-03-03T14:36:51;4.70;;;2.63;;
28836;SDS011;50669;50.982;11.022;2023-03-03T14:39:27;5.35;;;2.50;;
28836;SDS011;50669;50.982;11.022;2023-03-03T14:41:59;4.15;;;2.80;;
28836;SDS011;50669;50.982;11.022;2023-03-03T14:44:35;6.22;;;3.00;;
28836;SDS011;50669;50.982;11.022;2023-03-03T14:47:24;5.07;;;2.97;;
28836;SDS011;50669;50.982;11.022;2023-03-03T14:49:54;4.93;;;2.88;;
28836;SDS011;50669;50.982;11.022;2023-03-03T14:52:28;4.57;;;2.75;;
28836;SDS011;50669;50.982;11.022;2023-03-03T14:54:59;4.78;;;2.70;;
28836;SDS011;50669;50.982;11.022;2023-03-03T15:05:28;5.65;;;2.65;;
28836;SDS011;50669;50.982;11.022;2023-03-03T15:08:06;4.97;;;2.42;;
28836;SDS011;50669;50.982;11.022;2023-03-03T15:10:35;5.35;;;2.88;;
28836;SDS011;50669;50.982;11.022;2023-03-03T15:13:08;4.15;;;2.53;;
28836;SDS011;50669;50.982;11.022;2023-03-03T15:18:15;4.15;;;2.50;;
28836;SDS011;50669;50.982;11.022;2023-03-03T15:23:10;4.10;;;2.22;;
28836;SDS011;50669;50.982;11.022;2023-03-03T15:34:44;5.60;;;2.65;;
28836;SDS011;50669;50.982;11.022;2023-03-03T15:42:47;4.43;;;2.45;;
28836;SDS011;50669;50.982;11.022;2023-03-03T15:58:29;4.40;;;2.70;;
28836;SDS011;50669;50.982;11.022;2023-03-03T16:01:19;3.65;;;2.45;;
28836;SDS011;50669;50.982;11.022;2023-03-03T16:04:00;3.50;;;2.40;;
28836;SDS011;50669;50.982;11.022;2023-03-03T16:06:53;4.00;;;2.35;;
28836;SDS011;50669;50.982;11.022;2023-03-03T16:12:10;2.72;;;2.13;;
28836;SDS011;50669;50.982;11.022;2023-03-03T16:15:17;4.30;;;2.63;;
28836;SDS011;50669;50.982;11.022;2023-03-03T16:18:10;4.38;;;2.55;;
28836;SDS011;50669;50.982;11.022;2023-03-03T16:23:49;3.42;;;2.22;;
28836;SDS011;50669;50.982;11.022;2023-03-03T16:29:00;3.47;;;2.25;;
28836;SDS011;50669;50.982;11.022;2023-03-03T16:47:37;4.32;;;2.15;;
28836;SDS011;50669;50.982;11.022;2023-03-03T17:00:57;3.20;;;2.50;;
28836;SDS011;50669;50.982;11.022;2023-03-03T17:03:49;3.83;;;2.33;;
28836;SDS011;50669;50.982;11.022;2023-03-03T17:06:32;3.85;;;2.22;;
28836;SDS011;50669;50.982;11.022;2023-03-03T17:14:58;4.00;;;2.42;;
28836;SDS011;50669;50.982;11.022;2023-03-03T17:17:39;3.63;;;2.50;;
28836;SDS011;50669;50.982;11.022;2023-03-03T17:30:47;3.45;;;2.30;;
28836;SDS011;50669;50.982;11.022;2023-03-03T17:35:58;2.63;;;2.10;;
28836;SDS011;50669;50.982;11.022;2023-03-03T17:38:40;3.85;;;2.55;;
28836;SDS011;50669;50.982;11.022;2023-03-03T17:46:50;3.47;;;2.33;;
28836;SDS011;50669;50.982;11.022;2023-03-03T18:09:47;2.83;;;2.00;;
28836;SDS011;50669;50.982;11.022;2023-03-03T18:17:33;3.58;;;2.15;;
28836;SDS011;50669;50.982;11.022;2023-03-03T18:22:54;2.65;;;1.83;;
28836;SDS011;50669;50.982;11.022;2023-03-03T18:25:51;3.15;;;1.92;;
28836;SDS011;50669;50.982;11.022;2023-03-03T18:28:37;2.28;;;1.85;;
28836;SDS011;50669;50.982;11.022;2023-03-03T18:31:30;3.45;;;2.33;;
28836;SDS011;50669;50.982;11.022;2023-03-03T18:34:08;4.28;;;2.42;;
28836;SDS011;50669;50.982;11.022;2023-03-03T18:39:41;3.15;;;2.38;;
28836;SDS011;50669;50.982;11.022;2023-03-03T18:44:41;3.83;;;2.03;;
28836;SDS011;50669;50.982;11.022;2023-03-03T18:47:08;3.47;;;2.20;;
28836;SDS011;50669;50.982;11.022;2023-03-03T18:55:37;3.28;;;2.47;;
28836;SDS011;50669;50.982;11.022;2023-03-03T18:57:38;3.47;;;2.25;;
28836;SDS011;50669;50.982;11.022;2023-03-03T19:00:11;3.20;;;2.30;;
28836;SDS011;50669;50.982;11.022;2023-03-03T19:02:41;3.15;;;2.20;;
28836;SDS011;50669;50.982;11.022;2023-03-03T19:07:56;2.78;;;2.20;;
28836;SDS011;50669;50.982;11.022;2023-03-03T19:16:00;4.68;;;2.35;;
28836;SDS011;50669;50.982;11.022;2023-03-03T19:18:27;5.13;;;2.40;;
28836;SDS011;50669;50.982;11.022;2023-03-03T19:21:00;3.38;;;2.00;;
28836;SDS011;50669;50.982;11.022;2023-03-03T19:42:10;3.05;;;2.05;;
28836;SDS011;50669;50.982;11.022;2023-03-03T19:45:30;3.67;;;2.25;;
28836;SDS011;50669;50.982;11.022;2023-03-03T19:56:53;3.13;;;2.33;;
28836;SDS011;50669;50.982;11.022;2023-03-03T20:07:26;2.65;;;2.13;;
28836;SDS011;50669;50.982;11.022;2023-03-03T20:15:18;3.33;;;2.65;;
28836;SDS011;50669;50.982;11.022;2023-03-03T20:31:30;3.75;;;2.70;;
28836;SDS011;50669;50.982;11.022;2023-03-03T20:50:58;3.22;;;2.30;;
28836;SDS011;50669;50.982;11.022;2023-03-03T20:58:58;2.80;;;2.17;;
28836;SDS011;50669;50.982;11.022;2023-03-03T21:04:27;4.50;;;2.80;;
28836;SDS011;50669;50.982;11.022;2023-03-03T21:06:54;3.78;;;2.30;;
28836;SDS011;50669;50.982;11.022;2023-03-03T21:09:33;2.75;;;2.13;;
28836;SDS011;50669;50.982;11.022;2023-03-03T21:12:09;3.58;;;2.55;;
28836;SDS011;50669;50.982;11.022;2023-03-03T21:15:00;2.80;;;2.15;;
28836;SDS011;50669;50.982;11.022;2023-03-03T21:17:31;4.50;;;2.60;;
28836;SDS011;50669;50.982;11.022;2023-03-03T21:20:16;3.40;;;2.30;;
28836;SDS011;50669;50.982;11.022;2023-03-03T21:22:52;4.55;;;2.85;;
28836;SDS011;50669;50.982;11.022;2023-03-03T21:30:57;3.63;;;2.40;;
28836;SDS011;50669;50.982;11.022;2023-03-03T21:37:01;3.40;;;2.42;;
28836;SDS011;50669;50.982;11.022;2023-03-03T21:44:57;3.30;;;2.25;;
28836;SDS011;50669;50.982;11.022;2023-03-03T21:47:20;3.78;;;2.90;;
28836;SDS011;50669;50.982;11.022;2023-03-03T21:49:47;3.33;;;2.45;;
28836;SDS011;50669;50.982;11.022;2023-03-03T21:52:16;3.25;;;2.42;;
28836;SDS011;50669;50.982;11.022;2023-03-03T21:54:44;3.80;;;2.72;;
28836;SDS011;50669;50.982;11.022;2023-03-03T21:57:13;3.53;;;2.60;;
28836;SDS011;50669;50.982;11.022;2023-03-03T21:59:39;3.90;;;2.60;;
28836;SDS011;50669;50.982;11.022;2023-03-03T22:02:07;4.05;;;2.55;;
28836;SDS011;50669;50.982;11.022;2023-03-03T22:04:34;3.42;;;2.60;;
28836;SDS011;50669;50.982;11.022;2023-03-03T22:07:04;4.35;;;2.63;;
28836;SDS011;50669;50.982;11.022;2023-03-03T22:09:31;4.50;;;3.03;;
28836;SDS011;50669;50.982;11.022;2023-03-03T22:11:57;3.53;;;2.40;;
28836;SDS011;50669;50.982;11.022;2023-03-03T22:14:23;3.83;;;2.95;;
28836;SDS011;50669;50.982;11.022;2023-03-03T22:16:49;3.58;;;2.60;;
28836;SDS011;50669;50.982;11.022;2023-03-03T22:19:17;4.15;;;2.80;;
28836;SDS011;50669;50.982;11.022;2023-03-03T22:21:47;4.38;;;3.00;;
28836;SDS011;50669;50.982;11.022;2023-03-03T22:24:13;3.58;;;2.63;;
28836;SDS011;50669;50.982;11.022;2023-03-03T22:26:39;3.47;;;2.40;;
28836;SDS011;50669;50.982;11.022;2023-03-03T22:29:04;3.97;;;2.88;;
28836;SDS011;50669;50.982;11.022;2023-03-03T22:31:30;3.58;;;2.80;;
28836;SDS011;50669;50.982;11.022;2023-03-03T22:34:00;3.67;;;2.95;;
28836;SDS011;50669;50.982;11.022;2023-03-03T22:36:26;3.63;;;2.75;;
28836;SDS011;50669;50.982;11.022;2023-03-03T22:38:52;4.75;;;3.00;;
28836;SDS011;50669;50.982;11.022;2023-03-03T22:41:18;3.30;;;2.70;;
28836;SDS011;50669;50.982;11.022;2023-03-03T22:43:44;4.07;;;3.00;;